sensor_id;sensor_type;location;lat;lon;timestamp;P1;durP1;ratioP1;P2;durP2;ratioP2
55829;SDS011;41759;53.330;6.002;2023-09-18T00:00:02;117.18;;;32.97;;
55829;SDS011;41759;53.330;6.002;2023-09-18T00:02:30;43.03;;;28.63;;
55829;SDS011;41759;53.330;6.002;2023-09-18T00:04:56;44.33;;;29.40;;
55829;SDS011;41759;53.330;6.002;2023-09-18T00:07:22;36.58;;;27.00;;
55829;SDS011;41759;53.330;6.002;2023-09-18T00:09:48;58.05;;;30.48;;
55829;SDS011;41759;53.330;6.002;2023-09-18T00:12:14;82.75;;;32.55;;
55829;SDS011;41759;53.330;6.002;2023-09-18T00:14:40;61.50;;;29.85;;
55829;SDS011;41759;53.330;6.002;2023-09-18T00:17:06;57.17;;;27.85;;
55829;SDS011;41759;53.330;6.002;2023-09-18T00:19:32;62.45;;;31.70;;
55829;SDS011;41759;53.330;6.002;2023-09-18T00:21:59;48.10;;;29.23;;
55829;SDS011;41759;53.330;6.002;2023-09-18T00:24:26;45.45;;;29.65;;
55829;SDS011;41759;53.330;6.002;2023-09-18T00:26:52;52.90;;;29.67;;
55829;SDS011;41759;53.330;6.002;2023-09-18T00:29:18;47.03;;;30.65;;
55829;SDS011;41759;53.330;6.002;2023-09-18T00:31:44;42.22;;;28.90;;
55829;SDS011;41759;53.330;6.002;2023-09-18T00:34:10;42.13;;;28.85;;
55829;SDS011;41759;53.330;6.002;2023-09-18T00:36:36;106.80;;;35.88;;
55829;SDS011;41759;53.330;6.002;2023-09-18T00:39:02;92.70;;;35.22;;
55829;SDS011;41759;53.330;6.002;2023-09-18T00:41:28;86.47;;;36.05;;
55829;SDS011;41759;53.330;6.002;2023-09-18T00:43:54;94.90;;;34.75;;
55829;SDS011;41759;53.330;6.002;2023-09-18T00:46:20;79.97;;;34.60;;
55829;SDS011;41759;53.330;6.002;2023-09-18T00:48:47;97.60;;;34.75;;
55829;SDS011;41759;53.330;6.002;2023-09-18T00:51:14;59.65;;;31.23;;
55829;SDS011;41759;53.330;6.002;2023-09-18T00:53:45;53.55;;;30.38;;
55829;SDS011;41759;53.330;6.002;2023-09-18T00:56:13;110.88;;;37.33;;
55829;SDS011;41759;53.330;6.002;2023-09-18T00:58:40;71.63;;;32.83;;
55829;SDS011;41759;53.330;6.002;2023-09-18T01:01:05;156.07;;;40.08;;
55829;SDS011;41759;53.330;6.002;2023-09-18T01:03:31;116.05;;;39.05;;
55829;SDS011;41759;53.330;6.002;2023-09-18T01:05:57;160.07;;;41.47;;
55829;SDS011;41759;53.330;6.002;2023-09-18T01:08:24;149.82;;;41.75;;
55829;SDS011;41759;53.330;6.002;2023-09-18T01:13:33;91.70;;;35.28;;
55829;SDS011;41759;53.330;6.002;2023-09-18T01:16:17;115.50;;;36.20;;
55829;SDS011;41759;53.330;6.002;2023-09-18T01:18:50;212.73;;;44.17;;
55829;SDS011;41759;53.330;6.002;2023-09-18T01:21:18;74.40;;;36.55;;
55829;SDS011;41759;53.330;6.002;2023-09-18T01:23:45;147.27;;;42.17;;
55829;SDS011;41759;53.330;6.002;2023-09-18T01:26:11;247.43;;;46.97;;
55829;SDS011;41759;53.330;6.002;2023-09-18T01:28:37;179.18;;;42.83;;
55829;SDS011;41759;53.330;6.002;2023-09-18T01:31:03;86.32;;;35.72;;
55829;SDS011;41759;53.330;6.002;2023-09-18T01:33:29;81.35;;;33.03;;
55829;SDS011;41759;53.330;6.002;2023-09-18T01:35:56;67.07;;;33.10;;
55829;SDS011;41759;53.330;6.002;2023-09-18T01:38:23;65.72;;;35.80;;
55829;SDS011;41759;53.330;6.002;2023-09-18T01:40:49;114.00;;;40.00;;
55829;SDS011;41759;53.330;6.002;2023-09-18T01:43:18;77.22;;;36.45;;
55829;SDS011;41759;53.330;6.002;2023-09-18T01:45:44;104.88;;;38.50;;
55829;SDS011;41759;53.330;6.002;2023-09-18T01:48:11;77.05;;;36.60;;
55829;SDS011;41759;53.330;6.002;2023-09-18T01:50:37;48.92;;;34.40;;
55829;SDS011;41759;53.330;6.002;2023-09-18T01:53:05;48.33;;;33.40;;
55829;SDS011;41759;53.330;6.002;2023-09-18T01:55:31;47.22;;;33.50;;
55829;SDS011;41759;53.330;6.002;2023-09-18T01:57:58;56.38;;;35.58;;
55829;SDS011;41759;53.330;6.002;2023-09-18T02:00:24;60.67;;;34.25;;
55829;SDS011;41759;53.330;6.002;2023-09-18T02:02:50;52.00;;;34.55;;
55829;SDS011;41759;53.330;6.002;2023-09-18T02:05:15;55.30;;;35.35;;
55829;SDS011;41759;53.330;6.002;2023-09-18T02:07:41;57.13;;;34.75;;
55829;SDS011;41759;53.330;6.002;2023-09-18T02:10:07;55.05;;;33.95;;
55829;SDS011;41759;53.330;6.002;2023-09-18T02:12:33;55.90;;;34.97;;
55829;SDS011;41759;53.330;6.002;2023-09-18T02:14:59;62.55;;;36.30;;
55829;SDS011;41759;53.330;6.002;2023-09-18T02:17:29;47.75;;;34.40;;
55829;SDS011;41759;53.330;6.002;2023-09-18T02:19:55;61.88;;;37.65;;
55829;SDS011;41759;53.330;6.002;2023-09-18T02:22:21;57.38;;;38.75;;
55829;SDS011;41759;53.330;6.002;2023-09-18T02:24:47;50.70;;;34.45;;
55829;SDS011;41759;53.330;6.002;2023-09-18T02:27:12;52.58;;;36.85;;
55829;SDS011;41759;53.330;6.002;2023-09-18T02:29:38;64.85;;;38.83;;
55829;SDS011;41759;53.330;6.002;2023-09-18T02:32:04;52.63;;;36.40;;
55829;SDS011;41759;53.330;6.002;2023-09-18T02:34:30;53.90;;;36.63;;
55829;SDS011;41759;53.330;6.002;2023-09-18T02:36:56;50.30;;;35.70;;
55829;SDS011;41759;53.330;6.002;2023-09-18T02:39:22;51.38;;;37.63;;
55829;SDS011;41759;53.330;6.002;2023-09-18T02:41:47;50.17;;;36.90;;
55829;SDS011;41759;53.330;6.002;2023-09-18T02:44:13;49.55;;;36.85;;
55829;SDS011;41759;53.330;6.002;2023-09-18T02:46:39;51.58;;;35.78;;
55829;SDS011;41759;53.330;6.002;2023-09-18T02:49:08;51.55;;;36.03;;
55829;SDS011;41759;53.330;6.002;2023-09-18T02:51:33;51.28;;;36.80;;
55829;SDS011;41759;53.330;6.002;2023-09-18T02:53:59;52.03;;;37.60;;
55829;SDS011;41759;53.330;6.002;2023-09-18T02:56:25;52.80;;;38.70;;
55829;SDS011;41759;53.330;6.002;2023-09-18T02:58:51;54.17;;;38.45;;
55829;SDS011;41759;53.330;6.002;2023-09-18T03:01:16;60.22;;;40.72;;
55829;SDS011;41759;53.330;6.002;2023-09-18T03:03:42;53.40;;;38.95;;
55829;SDS011;41759;53.330;6.002;2023-09-18T03:06:08;56.13;;;39.97;;
55829;SDS011;41759;53.330;6.002;2023-09-18T03:08:34;61.10;;;40.63;;
55829;SDS011;41759;53.330;6.002;2023-09-18T03:11:00;59.72;;;42.08;;
55829;SDS011;41759;53.330;6.002;2023-09-18T03:13:26;57.80;;;40.45;;
55829;SDS011;41759;53.330;6.002;2023-09-18T03:15:53;59.60;;;41.00;;
55829;SDS011;41759;53.330;6.002;2023-09-18T03:18:19;63.53;;;42.75;;
55829;SDS011;41759;53.330;6.002;2023-09-18T03:20:45;60.40;;;42.58;;
55829;SDS011;41759;53.330;6.002;2023-09-18T03:23:10;71.05;;;43.67;;
55829;SDS011;41759;53.330;6.002;2023-09-18T03:25:36;65.70;;;42.35;;
55829;SDS011;41759;53.330;6.002;2023-09-18T03:28:02;58.83;;;42.22;;
55829;SDS011;41759;53.330;6.002;2023-09-18T03:30:28;60.95;;;42.78;;
55829;SDS011;41759;53.330;6.002;2023-09-18T03:32:54;60.63;;;42.85;;
55829;SDS011;41759;53.330;6.002;2023-09-18T03:35:20;55.33;;;39.88;;
55829;SDS011;41759;53.330;6.002;2023-09-18T03:37:50;57.78;;;41.95;;
55829;SDS011;41759;53.330;6.002;2023-09-18T03:40:17;61.78;;;42.67;;
55829;SDS011;41759;53.330;6.002;2023-09-18T03:42:43;59.95;;;42.63;;
55829;SDS011;41759;53.330;6.002;2023-09-18T03:45:10;58.78;;;41.55;;
55829;SDS011;41759;53.330;6.002;2023-09-18T03:47:37;57.17;;;42.22;;
55829;SDS011;41759;53.330;6.002;2023-09-18T03:50:06;59.22;;;42.47;;
55829;SDS011;41759;53.330;6.002;2023-09-18T03:52:36;62.10;;;42.90;;
55829;SDS011;41759;53.330;6.002;2023-09-18T03:55:03;57.45;;;39.85;;
55829;SDS011;41759;53.330;6.002;2023-09-18T03:57:30;53.80;;;40.78;;
55829;SDS011;41759;53.330;6.002;2023-09-18T03:59:55;55.90;;;41.90;;
55829;SDS011;41759;53.330;6.002;2023-09-18T04:02:23;56.08;;;41.03;;
55829;SDS011;41759;53.330;6.002;2023-09-18T04:04:49;59.85;;;40.78;;
55829;SDS011;41759;53.330;6.002;2023-09-18T04:07:15;54.03;;;40.50;;
55829;SDS011;41759;53.330;6.002;2023-09-18T04:09:41;53.88;;;42.20;;
55829;SDS011;41759;53.330;6.002;2023-09-18T04:12:08;51.38;;;38.38;;
55829;SDS011;41759;53.330;6.002;2023-09-18T04:14:34;52.97;;;39.53;;
55829;SDS011;41759;53.330;6.002;2023-09-18T04:17:01;53.17;;;39.90;;
55829;SDS011;41759;53.330;6.002;2023-09-18T04:19:27;51.47;;;40.50;;
55829;SDS011;41759;53.330;6.002;2023-09-18T04:21:52;56.58;;;41.90;;
55829;SDS011;41759;53.330;6.002;2023-09-18T04:24:18;53.40;;;40.20;;
55829;SDS011;41759;53.330;6.002;2023-09-18T04:26:44;56.70;;;39.90;;
55829;SDS011;41759;53.330;6.002;2023-09-18T04:29:10;49.72;;;40.13;;
55829;SDS011;41759;53.330;6.002;2023-09-18T04:31:36;45.70;;;37.78;;
55829;SDS011;41759;53.330;6.002;2023-09-18T04:34:03;45.40;;;36.97;;
55829;SDS011;41759;53.330;6.002;2023-09-18T04:36:29;48.33;;;38.33;;
55829;SDS011;41759;53.330;6.002;2023-09-18T04:38:55;47.92;;;39.33;;
55829;SDS011;41759;53.330;6.002;2023-09-18T04:41:20;47.97;;;38.67;;
55829;SDS011;41759;53.330;6.002;2023-09-18T04:43:46;43.92;;;37.13;;
55829;SDS011;41759;53.330;6.002;2023-09-18T04:46:12;43.70;;;35.10;;
55829;SDS011;41759;53.330;6.002;2023-09-18T04:48:38;43.63;;;34.70;;
55829;SDS011;41759;53.330;6.002;2023-09-18T04:51:04;42.35;;;34.92;;
55829;SDS011;41759;53.330;6.002;2023-09-18T04:53:30;48.28;;;34.30;;
55829;SDS011;41759;53.330;6.002;2023-09-18T04:55:57;40.50;;;33.92;;
55829;SDS011;41759;53.330;6.002;2023-09-18T04:58:23;44.80;;;34.80;;
55829;SDS011;41759;53.330;6.002;2023-09-18T05:00:55;42.45;;;33.40;;
55829;SDS011;41759;53.330;6.002;2023-09-18T05:03:22;42.38;;;34.30;;
55829;SDS011;41759;53.330;6.002;2023-09-18T05:05:48;44.63;;;34.80;;
55829;SDS011;41759;53.330;6.002;2023-09-18T05:08:14;41.00;;;33.85;;
55829;SDS011;41759;53.330;6.002;2023-09-18T05:10:40;43.95;;;34.15;;
55829;SDS011;41759;53.330;6.002;2023-09-18T05:13:06;41.72;;;31.88;;
55829;SDS011;41759;53.330;6.002;2023-09-18T05:15:32;38.65;;;30.15;;
55829;SDS011;41759;53.330;6.002;2023-09-18T05:17:58;34.45;;;29.73;;
55829;SDS011;41759;53.330;6.002;2023-09-18T05:20:25;35.05;;;28.15;;
55829;SDS011;41759;53.330;6.002;2023-09-18T05:22:55;35.40;;;28.95;;
55829;SDS011;41759;53.330;6.002;2023-09-18T05:25:22;33.83;;;29.35;;
55829;SDS011;41759;53.330;6.002;2023-09-18T05:27:50;32.40;;;27.35;;
55829;SDS011;41759;53.330;6.002;2023-09-18T05:30:26;32.00;;;25.55;;
55829;SDS011;41759;53.330;6.002;2023-09-18T05:32:57;33.03;;;28.25;;
55829;SDS011;41759;53.330;6.002;2023-09-18T05:35:30;33.45;;;28.35;;
55829;SDS011;41759;53.330;6.002;2023-09-18T05:37:58;30.65;;;26.45;;
55829;SDS011;41759;53.330;6.002;2023-09-18T05:40:25;32.08;;;26.08;;
55829;SDS011;41759;53.330;6.002;2023-09-18T05:42:52;32.40;;;26.45;;
55829;SDS011;41759;53.330;6.002;2023-09-18T05:45:19;31.17;;;25.40;;
55829;SDS011;41759;53.330;6.002;2023-09-18T05:47:45;31.50;;;25.15;;
55829;SDS011;41759;53.330;6.002;2023-09-18T05:50:12;29.75;;;25.40;;
55829;SDS011;41759;53.330;6.002;2023-09-18T05:52:40;33.40;;;26.85;;
55829;SDS011;41759;53.330;6.002;2023-09-18T05:55:06;32.35;;;25.27;;
55829;SDS011;41759;53.330;6.002;2023-09-18T05:57:33;27.60;;;24.75;;
55829;SDS011;41759;53.330;6.002;2023-09-18T05:59:59;28.90;;;24.80;;
55829;SDS011;41759;53.330;6.002;2023-09-18T06:02:25;40.05;;;31.60;;
55829;SDS011;41759;53.330;6.002;2023-09-18T06:04:58;38.38;;;31.13;;
55829;SDS011;41759;53.330;6.002;2023-09-18T06:07:31;33.00;;;26.48;;
55829;SDS011;41759;53.330;6.002;2023-09-18T06:09:57;29.27;;;24.27;;
55829;SDS011;41759;53.330;6.002;2023-09-18T06:12:23;27.40;;;24.23;;
55829;SDS011;41759;53.330;6.002;2023-09-18T06:14:50;28.42;;;23.27;;
55829;SDS011;41759;53.330;6.002;2023-09-18T06:17:16;27.70;;;23.23;;
55829;SDS011;41759;53.330;6.002;2023-09-18T06:19:42;30.77;;;23.45;;
55829;SDS011;41759;53.330;6.002;2023-09-18T06:22:08;28.38;;;23.23;;
55829;SDS011;41759;53.330;6.002;2023-09-18T06:24:34;27.42;;;23.02;;
55829;SDS011;41759;53.330;6.002;2023-09-18T06:27:00;31.05;;;22.95;;
55829;SDS011;41759;53.330;6.002;2023-09-18T06:29:26;33.78;;;22.92;;
55829;SDS011;41759;53.330;6.002;2023-09-18T06:31:52;29.52;;;23.90;;
55829;SDS011;41759;53.330;6.002;2023-09-18T06:34:18;26.60;;;22.30;;
55829;SDS011;41759;53.330;6.002;2023-09-18T06:36:43;28.13;;;22.90;;
55829;SDS011;41759;53.330;6.002;2023-09-18T06:39:09;25.60;;;22.60;;
55829;SDS011;41759;53.330;6.002;2023-09-18T06:41:35;30.30;;;22.98;;
55829;SDS011;41759;53.330;6.002;2023-09-18T06:44:01;27.45;;;22.52;;
55829;SDS011;41759;53.330;6.002;2023-09-18T06:46:31;29.38;;;23.27;;
55829;SDS011;41759;53.330;6.002;2023-09-18T06:48:57;30.15;;;21.63;;
55829;SDS011;41759;53.330;6.002;2023-09-18T06:51:29;28.30;;;22.15;;
55829;SDS011;41759;53.330;6.002;2023-09-18T06:53:55;26.15;;;19.90;;
55829;SDS011;41759;53.330;6.002;2023-09-18T06:56:22;26.08;;;20.80;;
55829;SDS011;41759;53.330;6.002;2023-09-18T06:58:49;26.05;;;21.00;;
55829;SDS011;41759;53.330;6.002;2023-09-18T07:01:17;29.63;;;21.42;;
55829;SDS011;41759;53.330;6.002;2023-09-18T07:03:45;30.27;;;20.90;;
55829;SDS011;41759;53.330;6.002;2023-09-18T07:06:13;30.08;;;21.88;;
55829;SDS011;41759;53.330;6.002;2023-09-18T07:08:43;33.22;;;22.33;;
55829;SDS011;41759;53.330;6.002;2023-09-18T07:11:09;37.10;;;22.52;;
55829;SDS011;41759;53.330;6.002;2023-09-18T07:13:35;35.33;;;23.40;;
55829;SDS011;41759;53.330;6.002;2023-09-18T07:16:01;39.88;;;24.45;;
55829;SDS011;41759;53.330;6.002;2023-09-18T07:18:29;31.83;;;22.35;;
55829;SDS011;41759;53.330;6.002;2023-09-18T07:20:55;27.35;;;18.17;;
55829;SDS011;41759;53.330;6.002;2023-09-18T07:23:20;23.00;;;15.73;;
55829;SDS011;41759;53.330;6.002;2023-09-18T07:25:49;24.00;;;15.80;;
55829;SDS011;41759;53.330;6.002;2023-09-18T07:28:15;23.27;;;12.75;;
55829;SDS011;41759;53.330;6.002;2023-09-18T07:30:43;22.50;;;13.25;;
55829;SDS011;41759;53.330;6.002;2023-09-18T07:33:11;19.13;;;12.15;;
55829;SDS011;41759;53.330;6.002;2023-09-18T07:35:41;17.13;;;11.55;;
55829;SDS011;41759;53.330;6.002;2023-09-18T07:38:07;19.65;;;11.23;;
55829;SDS011;41759;53.330;6.002;2023-09-18T07:40:33;18.88;;;10.93;;
55829;SDS011;41759;53.330;6.002;2023-09-18T07:42:58;17.65;;;10.52;;
55829;SDS011;41759;53.330;6.002;2023-09-18T07:45:24;16.73;;;10.80;;
55829;SDS011;41759;53.330;6.002;2023-09-18T07:47:50;17.33;;;10.75;;
55829;SDS011;41759;53.330;6.002;2023-09-18T07:50:16;16.38;;;9.95;;
55829;SDS011;41759;53.330;6.002;2023-09-18T07:52:43;18.40;;;9.70;;
55829;SDS011;41759;53.330;6.002;2023-09-18T07:55:08;17.80;;;10.38;;
55829;SDS011;41759;53.330;6.002;2023-09-18T07:57:35;14.93;;;9.38;;
55829;SDS011;41759;53.330;6.002;2023-09-18T08:00:03;12.50;;;8.90;;
55829;SDS011;41759;53.330;6.002;2023-09-18T08:02:33;14.00;;;9.18;;
55829;SDS011;41759;53.330;6.002;2023-09-18T08:05:02;20.33;;;10.20;;
55829;SDS011;41759;53.330;6.002;2023-09-18T08:07:30;17.38;;;10.18;;
55829;SDS011;41759;53.330;6.002;2023-09-18T08:09:56;16.98;;;9.73;;
55829;SDS011;41759;53.330;6.002;2023-09-18T08:12:22;13.63;;;9.75;;
55829;SDS011;41759;53.330;6.002;2023-09-18T08:14:48;22.25;;;13.35;;
55829;SDS011;41759;53.330;6.002;2023-09-18T08:17:15;18.48;;;11.13;;
55829;SDS011;41759;53.330;6.002;2023-09-18T08:19:41;21.08;;;11.25;;
55829;SDS011;41759;53.330;6.002;2023-09-18T08:22:09;15.25;;;9.95;;
55829;SDS011;41759;53.330;6.002;2023-09-18T08:24:37;18.25;;;10.75;;
55829;SDS011;41759;53.330;6.002;2023-09-18T08:27:02;16.98;;;10.55;;
55829;SDS011;41759;53.330;6.002;2023-09-18T08:29:28;17.73;;;11.23;;
55829;SDS011;41759;53.330;6.002;2023-09-18T08:31:54;15.82;;;10.20;;
55829;SDS011;41759;53.330;6.002;2023-09-18T08:34:20;18.73;;;10.43;;
55829;SDS011;41759;53.330;6.002;2023-09-18T08:36:45;22.55;;;10.98;;
55829;SDS011;41759;53.330;6.002;2023-09-18T08:39:11;21.15;;;10.25;;
55829;SDS011;41759;53.330;6.002;2023-09-18T08:41:38;17.40;;;9.27;;
55829;SDS011;41759;53.330;6.002;2023-09-18T08:44:07;15.75;;;9.52;;
55829;SDS011;41759;53.330;6.002;2023-09-18T08:46:36;19.38;;;9.85;;
55829;SDS011;41759;53.330;6.002;2023-09-18T08:49:03;16.95;;;9.60;;
55829;SDS011;41759;53.330;6.002;2023-09-18T08:51:29;14.73;;;8.95;;
55829;SDS011;41759;53.330;6.002;2023-09-18T08:53:57;16.30;;;8.30;;
55829;SDS011;41759;53.330;6.002;2023-09-18T08:56:23;15.60;;;8.68;;
55829;SDS011;41759;53.330;6.002;2023-09-18T08:58:50;16.70;;;8.20;;
55829;SDS011;41759;53.330;6.002;2023-09-18T09:01:15;16.38;;;8.80;;
55829;SDS011;41759;53.330;6.002;2023-09-18T09:03:42;14.00;;;8.40;;
55829;SDS011;41759;53.330;6.002;2023-09-18T09:06:11;18.58;;;8.45;;
55829;SDS011;41759;53.330;6.002;2023-09-18T09:08:37;21.48;;;9.93;;
55829;SDS011;41759;53.330;6.002;2023-09-18T09:11:04;15.05;;;8.85;;
55829;SDS011;41759;53.330;6.002;2023-09-18T09:13:30;21.42;;;10.43;;
55829;SDS011;41759;53.330;6.002;2023-09-18T09:15:57;19.90;;;10.30;;
55829;SDS011;41759;53.330;6.002;2023-09-18T09:18:26;17.55;;;10.80;;
55829;SDS011;41759;53.330;6.002;2023-09-18T09:20:57;22.35;;;11.43;;
55829;SDS011;41759;53.330;6.002;2023-09-18T09:23:29;23.17;;;12.07;;
55829;SDS011;41759;53.330;6.002;2023-09-18T09:26:28;25.70;;;13.35;;
55829;SDS011;41759;53.330;6.002;2023-09-18T09:28:48;20.83;;;12.77;;
55829;SDS011;41759;53.330;6.002;2023-09-18T09:31:28;24.15;;;14.07;;
55829;SDS011;41759;53.330;6.002;2023-09-18T09:33:55;26.52;;;14.43;;
55829;SDS011;41759;53.330;6.002;2023-09-18T09:36:22;25.90;;;16.23;;
55829;SDS011;41759;53.330;6.002;2023-09-18T09:38:49;25.85;;;16.55;;
55829;SDS011;41759;53.330;6.002;2023-09-18T09:41:21;30.67;;;19.58;;
55829;SDS011;41759;53.330;6.002;2023-09-18T09:43:46;32.45;;;18.75;;
55829;SDS011;41759;53.330;6.002;2023-09-18T09:46:16;27.05;;;18.30;;
55829;SDS011;41759;53.330;6.002;2023-09-18T09:49:02;26.20;;;18.17;;
55829;SDS011;41759;53.330;6.002;2023-09-18T09:51:31;29.08;;;19.17;;
55829;SDS011;41759;53.330;6.002;2023-09-18T09:53:58;31.58;;;20.00;;
55829;SDS011;41759;53.330;6.002;2023-09-18T09:56:41;28.45;;;20.80;;
55829;SDS011;41759;53.330;6.002;2023-09-18T09:59:16;31.05;;;20.30;;
55829;SDS011;41759;53.330;6.002;2023-09-18T10:01:47;29.13;;;20.67;;
55829;SDS011;41759;53.330;6.002;2023-09-18T10:04:17;33.85;;;21.33;;
55829;SDS011;41759;53.330;6.002;2023-09-18T10:06:51;32.05;;;22.45;;
55829;SDS011;41759;53.330;6.002;2023-09-18T10:09:20;52.95;;;35.28;;
55829;SDS011;41759;53.330;6.002;2023-09-18T10:11:54;39.05;;;27.33;;
55829;SDS011;41759;53.330;6.002;2023-09-18T10:14:29;31.42;;;22.30;;
55829;SDS011;41759;53.330;6.002;2023-09-18T10:16:56;25.92;;;21.55;;
55829;SDS011;41759;53.330;6.002;2023-09-18T10:19:40;29.80;;;21.42;;
55829;SDS011;41759;53.330;6.002;2023-09-18T10:24:59;26.35;;;20.10;;
55829;SDS011;41759;53.330;6.002;2023-09-18T10:27:51;25.73;;;19.90;;
55829;SDS011;41759;53.330;6.002;2023-09-18T10:30:37;26.27;;;20.85;;
55829;SDS011;41759;53.330;6.002;2023-09-18T10:33:03;30.63;;;21.10;;
55829;SDS011;41759;53.330;6.002;2023-09-18T10:35:32;25.83;;;21.92;;
55829;SDS011;41759;53.330;6.002;2023-09-18T10:38:01;27.90;;;22.88;;
55829;SDS011;41759;53.330;6.002;2023-09-18T10:40:30;28.92;;;23.38;;
55829;SDS011;41759;53.330;6.002;2023-09-18T10:42:58;31.95;;;24.52;;
55829;SDS011;41759;53.330;6.002;2023-09-18T10:45:28;27.10;;;23.60;;
55829;SDS011;41759;53.330;6.002;2023-09-18T10:47:54;25.35;;;22.77;;
55829;SDS011;41759;53.330;6.002;2023-09-18T10:50:24;24.73;;;22.10;;
55829;SDS011;41759;53.330;6.002;2023-09-18T10:52:51;22.65;;;20.30;;
55829;SDS011;41759;53.330;6.002;2023-09-18T10:55:17;24.67;;;21.98;;
55829;SDS011;41759;53.330;6.002;2023-09-18T10:57:53;21.40;;;19.20;;
55829;SDS011;41759;53.330;6.002;2023-09-18T11:00:24;20.83;;;18.80;;
55829;SDS011;41759;53.330;6.002;2023-09-18T11:02:52;21.83;;;19.63;;
55829;SDS011;41759;53.330;6.002;2023-09-18T11:05:28;22.23;;;20.02;;
55829;SDS011;41759;53.330;6.002;2023-09-18T11:08:23;22.15;;;19.95;;
55829;SDS011;41759;53.330;6.002;2023-09-18T11:10:58;48.22;;;41.67;;
55829;SDS011;41759;53.330;6.002;2023-09-18T11:18:45;18.58;;;16.27;;
55829;SDS011;41759;53.330;6.002;2023-09-18T11:21:23;17.17;;;15.43;;
55829;SDS011;41759;53.330;6.002;2023-09-18T11:23:57;17.42;;;14.02;;
55829;SDS011;41759;53.330;6.002;2023-09-18T11:26:23;11.85;;;10.70;;
55829;SDS011;41759;53.330;6.002;2023-09-18T11:28:53;13.57;;;10.20;;
55829;SDS011;41759;53.330;6.002;2023-09-18T11:31:19;12.68;;;10.23;;
55829;SDS011;41759;53.330;6.002;2023-09-18T11:33:47;11.45;;;9.30;;
55829;SDS011;41759;53.330;6.002;2023-09-18T11:36:13;11.18;;;9.95;;
55829;SDS011;41759;53.330;6.002;2023-09-18T11:38:59;11.38;;;8.63;;
55829;SDS011;41759;53.330;6.002;2023-09-18T11:41:28;11.02;;;9.50;;
55829;SDS011;41759;53.330;6.002;2023-09-18T11:46:45;12.52;;;9.43;;
55829;SDS011;41759;53.330;6.002;2023-09-18T11:49:20;9.05;;;7.60;;
55829;SDS011;41759;53.330;6.002;2023-09-18T11:51:47;7.20;;;6.40;;
55829;SDS011;41759;53.330;6.002;2023-09-18T11:54:16;10.43;;;5.93;;
55829;SDS011;41759;53.330;6.002;2023-09-18T11:56:43;7.40;;;5.95;;
55829;SDS011;41759;53.330;6.002;2023-09-18T11:59:09;6.63;;;4.95;;
55829;SDS011;41759;53.330;6.002;2023-09-18T12:01:36;7.60;;;4.80;;
55829;SDS011;41759;53.330;6.002;2023-09-18T12:04:04;7.40;;;4.20;;
55829;SDS011;41759;53.330;6.002;2023-09-18T12:06:34;8.98;;;4.22;;
55829;SDS011;41759;53.330;6.002;2023-09-18T12:09:01;8.13;;;4.43;;
55829;SDS011;41759;53.330;6.002;2023-09-18T12:11:29;9.68;;;4.40;;
55829;SDS011;41759;53.330;6.002;2023-09-18T12:13:55;6.65;;;4.40;;
55829;SDS011;41759;53.330;6.002;2023-09-18T12:16:21;10.55;;;5.03;;
55829;SDS011;41759;53.330;6.002;2023-09-18T12:18:47;11.25;;;5.00;;
55829;SDS011;41759;53.330;6.002;2023-09-18T12:21:14;8.57;;;6.22;;
55829;SDS011;41759;53.330;6.002;2023-09-18T12:23:43;11.63;;;7.35;;
55829;SDS011;41759;53.330;6.002;2023-09-18T12:26:10;11.98;;;7.47;;
55829;SDS011;41759;53.330;6.002;2023-09-18T12:28:41;11.52;;;8.00;;
55829;SDS011;41759;53.330;6.002;2023-09-18T12:31:14;9.02;;;7.97;;
55829;SDS011;41759;53.330;6.002;2023-09-18T12:33:41;9.10;;;7.82;;
55829;SDS011;41759;53.330;6.002;2023-09-18T12:36:09;8.88;;;7.97;;
55829;SDS011;41759;53.330;6.002;2023-09-18T12:38:36;9.05;;;7.82;;
55829;SDS011;41759;53.330;6.002;2023-09-18T12:41:03;11.73;;;8.45;;
55829;SDS011;41759;53.330;6.002;2023-09-18T12:43:40;10.70;;;6.80;;
55829;SDS011;41759;53.330;6.002;2023-09-18T12:46:07;7.90;;;6.95;;
55829;SDS011;41759;53.330;6.002;2023-09-18T12:48:37;8.52;;;6.13;;
55829;SDS011;41759;53.330;6.002;2023-09-18T12:51:07;11.32;;;7.38;;
55829;SDS011;41759;53.330;6.002;2023-09-18T12:53:33;11.70;;;7.40;;
55829;SDS011;41759;53.330;6.002;2023-09-18T12:58:35;11.07;;;7.15;;
55829;SDS011;41759;53.330;6.002;2023-09-18T13:01:05;10.00;;;8.25;;
55829;SDS011;41759;53.330;6.002;2023-09-18T13:03:55;13.57;;;9.63;;
55829;SDS011;41759;53.330;6.002;2023-09-18T13:06:21;8.65;;;7.78;;
55829;SDS011;41759;53.330;6.002;2023-09-18T13:08:46;9.05;;;8.05;;
55829;SDS011;41759;53.330;6.002;2023-09-18T13:11:14;8.60;;;7.57;;
55829;SDS011;41759;53.330;6.002;2023-09-18T13:13:41;16.50;;;8.57;;
55829;SDS011;41759;53.330;6.002;2023-09-18T13:16:09;8.45;;;7.63;;
55829;SDS011;41759;53.330;6.002;2023-09-18T13:18:35;10.70;;;7.30;;
55829;SDS011;41759;53.330;6.002;2023-09-18T13:21:11;10.43;;;7.32;;
55829;SDS011;41759;53.330;6.002;2023-09-18T13:23:38;8.88;;;7.40;;
55829;SDS011;41759;53.330;6.002;2023-09-18T13:26:04;10.27;;;9.02;;
55829;SDS011;41759;53.330;6.002;2023-09-18T13:28:33;8.32;;;7.60;;
55829;SDS011;41759;53.330;6.002;2023-09-18T13:31:01;8.88;;;6.90;;
55829;SDS011;41759;53.330;6.002;2023-09-18T13:33:30;9.82;;;7.15;;
55829;SDS011;41759;53.330;6.002;2023-09-18T13:35:59;10.02;;;7.72;;
55829;SDS011;41759;53.330;6.002;2023-09-18T13:38:25;8.52;;;7.50;;
55829;SDS011;41759;53.330;6.002;2023-09-18T13:40:53;10.70;;;7.82;;
55829;SDS011;41759;53.330;6.002;2023-09-18T13:43:20;10.65;;;8.57;;
55829;SDS011;41759;53.330;6.002;2023-09-18T13:45:49;9.13;;;7.90;;
55829;SDS011;41759;53.330;6.002;2023-09-18T13:48:22;9.32;;;8.40;;
55829;SDS011;41759;53.330;6.002;2023-09-18T13:50:48;13.85;;;12.25;;
55829;SDS011;41759;53.330;6.002;2023-09-18T13:53:16;12.23;;;11.00;;
55829;SDS011;41759;53.330;6.002;2023-09-18T13:55:42;12.30;;;10.90;;
55829;SDS011;41759;53.330;6.002;2023-09-18T13:58:08;10.18;;;9.20;;
55829;SDS011;41759;53.330;6.002;2023-09-18T14:00:34;8.45;;;7.65;;
55829;SDS011;41759;53.330;6.002;2023-09-18T14:03:00;9.43;;;6.90;;
55829;SDS011;41759;53.330;6.002;2023-09-18T14:05:28;8.65;;;6.35;;
55829;SDS011;41759;53.330;6.002;2023-09-18T14:07:55;4.90;;;4.35;;
55829;SDS011;41759;53.330;6.002;2023-09-18T14:10:24;5.32;;;3.10;;
55829;SDS011;41759;53.330;6.002;2023-09-18T14:12:51;5.28;;;3.30;;
55829;SDS011;41759;53.330;6.002;2023-09-18T14:15:17;3.95;;;3.53;;
55829;SDS011;41759;53.330;6.002;2023-09-18T14:17:43;4.45;;;3.28;;
55829;SDS011;41759;53.330;6.002;2023-09-18T14:20:09;3.58;;;2.83;;
55829;SDS011;41759;53.330;6.002;2023-09-18T14:22:35;4.68;;;3.28;;
55829;SDS011;41759;53.330;6.002;2023-09-18T14:25:02;5.45;;;2.60;;
55829;SDS011;41759;53.330;6.002;2023-09-18T14:27:31;3.85;;;2.55;;
55829;SDS011;41759;53.330;6.002;2023-09-18T14:30:00;5.57;;;2.88;;
55829;SDS011;41759;53.330;6.002;2023-09-18T14:32:31;6.55;;;3.63;;
55829;SDS011;41759;53.330;6.002;2023-09-18T14:34:57;4.57;;;3.40;;
55829;SDS011;41759;53.330;6.002;2023-09-18T14:37:26;5.45;;;4.50;;
55829;SDS011;41759;53.330;6.002;2023-09-18T14:39:52;6.85;;;6.15;;
55829;SDS011;41759;53.330;6.002;2023-09-18T14:42:18;8.35;;;6.57;;
55829;SDS011;41759;53.330;6.002;2023-09-18T14:44:43;7.15;;;5.68;;